createdAt,value
2019-01-25T00:02:05.644Z,106.25
2019-01-25T00:04:34.267Z,117.40
2019-01-25T00:07:03.787Z,103.65
2019-01-25T00:09:32.430Z,108.27
2019-01-25T00:12:01.051Z,108.65
2019-01-25T00:14:29.679Z,100.90
2019-01-25T00:16:58.376Z,112.97
2019-01-25T00:19:26.985Z,111.10
2019-01-25T00:21:55.602Z,117.47
2019-01-25T00:24:24.534Z,104.87
2019-01-25T00:26:53.226Z,104.15
2019-01-25T00:29:21.895Z,108.57
2019-01-25T00:31:50.505Z,112.03
2019-01-25T00:34:19.189Z,108.92
2019-01-25T00:36:47.820Z,113.72
2019-01-25T00:39:16.445Z,105.80
2019-01-25T00:41:45.144Z,106.35
2019-01-25T00:44:13.771Z,110.40
2019-01-25T00:46:42.488Z,111.85
2019-01-25T00:49:11.154Z,112.90
2019-01-25T00:51:39.873Z,115.67
2019-01-25T00:54:08.531Z,109.15
2019-01-25T00:56:37.174Z,103.45
2019-01-25T00:59:05.902Z,103.70
2019-01-25T01:01:34.647Z,115.40
2019-01-25T01:04:03.318Z,127.27
2019-01-25T01:06:31.936Z,114.72
2019-01-25T01:09:00.544Z,110.42
2019-01-25T01:11:29.182Z,104.67
2019-01-25T01:13:57.779Z,110.00
2019-01-25T01:16:26.420Z,121.97
2019-01-25T01:18:55.078Z,134.47
2019-01-25T01:21:23.796Z,141.40
2019-01-25T01:23:52.411Z,161.50
2019-01-25T01:26:21.062Z,157.52
2019-01-25T01:28:49.668Z,147.70
2019-01-25T01:31:18.288Z,143.75
2019-01-25T01:33:46.916Z,145.07
2019-01-25T01:36:15.556Z,161.03
2019-01-25T01:38:44.439Z,155.07
2019-01-25T01:41:13.061Z,160.07
2019-01-25T01:43:41.670Z,146.85
2019-01-25T01:46:10.325Z,156.37
2019-01-25T01:48:39.619Z,156.75
2019-01-25T01:51:08.335Z,156.37
2019-01-25T01:53:36.959Z,158.15
2019-01-25T01:56:05.586Z,164.57
2019-01-25T01:58:34.190Z,166.40
2019-01-25T02:01:02.899Z,181.47
2019-01-25T02:03:31.523Z,195.18
2019-01-25T02:06:00.231Z,192.20
2019-01-25T02:08:28.927Z,184.90
2019-01-25T02:10:57.572Z,169.32
2019-01-25T02:13:26.316Z,189.97
2019-01-25T02:15:54.950Z,185.63
2019-01-25T02:18:23.572Z,194.17
2019-01-25T02:20:52.415Z,167.32
2019-01-25T02:23:21.024Z,193.32
2019-01-25T02:25:49.638Z,185.82
2019-01-25T02:28:18.482Z,179.15
2019-01-25T02:30:47.145Z,186.07
2019-01-25T02:33:16.407Z,173.90
2019-01-25T02:35:45.028Z,182.30
2019-01-25T02:38:13.632Z,207.43
2019-01-25T02:40:42.251Z,183.35
2019-01-25T02:43:10.861Z,186.97
2019-01-25T02:45:39.503Z,183.57
2019-01-25T02:48:08.200Z,186.25
2019-01-25T02:50:36.828Z,186.52
2019-01-25T02:53:05.695Z,192.92
2019-01-25T02:55:34.393Z,180.60
2019-01-25T02:58:02.999Z,178.75
2019-01-25T03:00:31.712Z,202.35
2019-01-25T03:03:00.319Z,193.50
2019-01-25T03:05:28.930Z,180.82
2019-01-25T03:07:57.534Z,183.12
2019-01-25T03:10:28.967Z,193.95
2019-01-25T03:12:56.588Z,199.05
2019-01-25T03:15:26.510Z,182.35
2019-01-25T03:17:55.383Z,190.73
2019-01-25T03:20:24.268Z,178.75
2019-01-25T03:22:52.895Z,174.07
2019-01-25T03:25:23.666Z,193.13
2019-01-25T03:27:52.371Z,188.32
2019-01-25T03:30:22.114Z,190.53
2019-01-25T03:32:50.890Z,200.50
2019-01-25T03:35:20.822Z,195.12
2019-01-25T03:37:49.714Z,178.45
2019-01-25T03:40:23.301Z,209.22
2019-01-25T03:42:51.987Z,184.70
2019-01-25T03:45:20.842Z,201.00
2019-01-25T03:47:49.647Z,208.72
2019-01-25T03:50:20.849Z,181.57
2019-01-25T03:52:49.579Z,196.75
2019-01-25T03:55:18.336Z,182.97
2019-01-25T03:57:47.200Z,200.90
2019-01-25T04:00:18.036Z,188.20
2019-01-25T04:02:46.654Z,217.00
2019-01-25T04:05:15.451Z,209.05
2019-01-25T04:07:44.405Z,204.75
2019-01-25T04:10:15.154Z,195.10
2019-01-25T04:12:43.867Z,206.82
2019-01-25T04:15:15.687Z,191.40
2019-01-25T04:17:44.399Z,204.50
2019-01-25T04:20:14.395Z,202.40
2019-01-25T04:22:43.077Z,222.65
2019-01-25T04:25:14.424Z,198.02
2019-01-25T04:27:43.140Z,214.93
2019-01-25T04:30:17.796Z,219.57
2019-01-25T04:32:46.416Z,201.42
2019-01-25T04:35:15.399Z,199.68
2019-01-25T04:37:44.022Z,207.92
2019-01-25T04:40:14.033Z,185.03
2019-01-25T04:42:42.659Z,202.28
2019-01-25T04:45:13.048Z,205.77
2019-01-25T04:47:41.684Z,210.35
2019-01-25T04:50:13.122Z,214.80
2019-01-25T04:52:41.744Z,214.60
2019-01-25T04:55:21.056Z,206.63
2019-01-25T04:57:49.921Z,225.30
2019-01-25T05:00:19.358Z,195.47
2019-01-25T05:02:56.283Z,210.68
2019-01-25T05:05:25.055Z,209.87
2019-01-25T05:08:05.113Z,228.92
2019-01-25T05:10:34.226Z,200.90
2019-01-25T05:13:02.971Z,206.47
2019-01-25T05:15:31.590Z,243.00
2019-01-25T05:18:00.263Z,217.60
2019-01-25T05:20:28.896Z,230.60
2019-01-25T05:22:58.613Z,226.52
2019-01-25T05:25:27.786Z,208.97
2019-01-25T05:27:56.737Z,199.90
2019-01-25T05:30:25.789Z,201.32
2019-01-25T05:32:54.419Z,213.12
2019-01-25T05:35:23.030Z,207.10
2019-01-25T05:37:51.655Z,232.18
2019-01-25T05:40:22.627Z,233.97
2019-01-25T05:42:51.358Z,207.30
2019-01-25T05:45:20.131Z,222.00
2019-01-25T05:47:48.791Z,217.87
2019-01-25T05:50:17.630Z,240.80
2019-01-25T05:52:46.324Z,228.37
2019-01-25T05:55:17.009Z,221.22
2019-01-25T05:57:45.815Z,225.18
2019-01-25T06:00:16.551Z,212.97
2019-01-25T06:02:45.196Z,217.75
2019-01-25T06:05:13.936Z,212.05
2019-01-25T06:07:44.054Z,226.80
2019-01-25T06:10:13.035Z,211.62
2019-01-25T06:12:41.681Z,213.35
2019-01-25T06:15:10.747Z,216.70
2019-01-25T06:17:39.410Z,217.60
2019-01-25T06:20:08.432Z,205.15
2019-01-25T06:22:37.075Z,223.05
2019-01-25T06:25:06.036Z,215.65
2019-01-25T06:27:37.999Z,222.45
2019-01-25T06:30:11.905Z,224.02
2019-01-25T06:32:40.564Z,232.80
2019-01-25T06:35:09.547Z,224.42
2019-01-25T06:37:38.263Z,227.40
2019-01-25T06:40:08.066Z,231.90
2019-01-25T06:42:36.819Z,230.70
2019-01-25T06:45:06.624Z,240.20
2019-01-25T06:47:35.278Z,248.60
2019-01-25T06:50:04.318Z,235.55
2019-01-25T06:52:32.931Z,217.93
2019-01-25T06:55:01.602Z,228.62
2019-01-25T06:57:37.135Z,223.65
2019-01-25T07:00:08.645Z,247.50
2019-01-25T07:02:39.605Z,235.97
2019-01-25T07:05:08.988Z,249.88
2019-01-25T07:07:38.882Z,219.77
2019-01-25T07:10:12.415Z,225.13
2019-01-25T07:12:41.053Z,239.02
2019-01-25T07:15:10.370Z,232.12
2019-01-25T07:17:38.977Z,217.32
2019-01-25T07:20:10.305Z,229.47
2019-01-25T07:22:38.924Z,211.65
2019-01-25T07:25:09.335Z,228.32
2019-01-25T07:27:37.936Z,205.32
2019-01-25T07:30:08.004Z,230.12
2019-01-25T07:32:36.602Z,215.87
2019-01-25T07:35:06.139Z,238.43
2019-01-25T07:37:34.773Z,225.93
2019-01-25T07:40:04.099Z,223.28
2019-01-25T07:42:32.804Z,207.90
2019-01-25T07:45:01.493Z,199.40
2019-01-25T07:47:30.207Z,232.95
2019-01-25T07:49:58.901Z,235.15
2019-01-25T07:52:27.615Z,215.70
2019-01-25T07:54:56.328Z,219.72
2019-01-25T07:57:24.934Z,206.70
2019-01-25T07:59:53.820Z,223.32
2019-01-25T08:02:22.699Z,204.15
2019-01-25T08:04:51.326Z,207.83
2019-01-25T08:07:19.993Z,218.90
2019-01-25T08:09:48.654Z,213.60
2019-01-25T08:12:17.268Z,227.00
2019-01-25T08:14:45.996Z,216.50
2019-01-25T08:17:14.612Z,224.65
2019-01-25T08:19:43.353Z,210.78
2019-01-25T08:22:11.980Z,226.80
2019-01-25T08:24:40.621Z,235.15
2019-01-25T08:27:09.347Z,221.62
2019-01-25T08:29:38.001Z,214.65
2019-01-25T08:32:06.956Z,218.17
2019-01-25T08:34:35.710Z,204.93
2019-01-25T08:37:04.541Z,205.95
2019-01-25T08:39:33.233Z,202.25
2019-01-25T08:42:01.868Z,197.55
2019-01-25T08:44:30.493Z,200.47
2019-01-25T08:46:59.310Z,192.72
2019-01-25T08:49:27.943Z,199.85
2019-01-25T08:51:56.597Z,189.87
2019-01-25T08:54:25.479Z,188.27
2019-01-25T08:56:54.462Z,188.12
2019-01-25T08:59:23.077Z,187.60
2019-01-25T09:01:51.715Z,198.45
2019-01-25T09:04:20.333Z,164.13
2019-01-25T09:06:49.178Z,145.38
2019-01-25T09:09:17.959Z,132.00
2019-01-25T09:11:46.616Z,137.45
2019-01-25T09:14:15.283Z,130.65
2019-01-25T09:16:44.004Z,74.67
2019-01-25T09:19:12.709Z,135.80
2019-01-25T09:21:41.619Z,105.78
2019-01-25T09:24:10.265Z,117.50
2019-01-25T09:26:39.228Z,123.45
2019-01-25T09:29:07.903Z,120.77
2019-01-25T09:31:36.527Z,110.48
2019-01-25T09:34:05.228Z,102.25
2019-01-25T09:36:33.946Z,119.62
2019-01-25T09:39:03.819Z,109.20
2019-01-25T09:41:32.519Z,95.28
2019-01-25T09:44:01.165Z,108.97
2019-01-25T09:46:30.186Z,85.38
2019-01-25T09:48:58.920Z,112.05
2019-01-25T09:51:27.590Z,108.35
2019-01-25T09:53:56.209Z,100.35
2019-01-25T09:56:24.855Z,95.45
2019-01-25T09:58:53.531Z,98.80
2019-01-25T10:01:22.147Z,102.32
2019-01-25T10:03:50.894Z,101.15
2019-01-25T10:06:19.851Z,100.58
2019-01-25T10:08:48.564Z,98.12
2019-01-25T10:11:17.208Z,96.45
2019-01-25T10:13:45.890Z,95.83
2019-01-25T10:16:14.572Z,111.97
2019-01-25T10:18:43.215Z,91.47
2019-01-25T10:21:11.854Z,96.15
2019-01-25T10:23:40.601Z,76.72
2019-01-25T10:26:09.211Z,80.90
2019-01-25T10:28:37.841Z,79.50
2019-01-25T10:31:06.599Z,77.62
2019-01-25T10:33:35.220Z,61.65
2019-01-25T10:36:04.254Z,88.37
2019-01-25T10:38:33.133Z,83.55
2019-01-25T10:41:01.775Z,74.53
2019-01-25T10:43:30.430Z,47.95
2019-01-25T10:45:59.147Z,77.58
2019-01-25T10:48:28.006Z,86.10
2019-01-25T10:50:56.731Z,88.12
2019-01-25T10:53:25.423Z,90.38
2019-01-25T10:55:54.062Z,89.97
2019-01-25T10:58:23.508Z,97.60
2019-01-25T11:00:52.308Z,96.60
2019-01-25T11:03:21.006Z,83.20
2019-01-25T11:05:49.685Z,94.70
2019-01-25T11:08:18.359Z,76.15
2019-01-25T11:10:46.972Z,71.02
2019-01-25T11:13:15.611Z,75.50
2019-01-25T11:15:44.228Z,96.55
2019-01-25T11:18:12.865Z,88.67
2019-01-25T11:20:41.487Z,83.95
2019-01-25T11:23:10.241Z,93.45
2019-01-25T11:25:39.741Z,92.60
2019-01-25T11:28:08.465Z,108.40
2019-01-25T11:30:37.423Z,100.35
2019-01-25T11:33:06.184Z,101.62
2019-01-25T11:35:34.878Z,92.02
2019-01-25T11:38:03.834Z,96.47
2019-01-25T11:40:34.947Z,99.52
2019-01-25T11:43:08.583Z,94.22
2019-01-25T11:45:34.492Z,93.05
2019-01-25T11:48:05.134Z,99.28
2019-01-25T11:50:33.798Z,95.87
2019-01-25T11:53:02.467Z,85.12
2019-01-25T11:55:31.331Z,95.42
2019-01-25T11:58:00.290Z,75.30
2019-01-25T12:00:30.866Z,89.97
2019-01-25T12:02:59.771Z,108.22
2019-01-25T12:05:28.448Z,101.38
2019-01-25T12:07:57.142Z,112.15
2019-01-25T12:10:27.660Z,99.15
2019-01-25T12:12:56.441Z,104.47
2019-01-25T12:15:25.120Z,98.65
2019-01-25T12:17:54.042Z,97.33
2019-01-25T12:20:24.672Z,103.97
2019-01-25T12:22:53.288Z,74.85
2019-01-25T12:25:21.907Z,111.50
2019-01-25T12:27:50.564Z,102.42
2019-01-25T12:30:40.188Z,99.47
2019-01-25T12:33:09.696Z,104.03
2019-01-25T12:35:45.299Z,99.77
2019-01-25T12:38:16.770Z,75.72
2019-01-25T12:40:45.417Z,103.65
2019-01-25T12:43:14.057Z,103.20
2019-01-25T12:45:42.743Z,105.65
2019-01-25T12:48:11.519Z,98.15
2019-01-25T12:51:02.291Z,58.17
2019-01-25T12:53:31.566Z,102.80
2019-01-25T12:56:00.170Z,98.05
2019-01-25T12:58:30.775Z,108.15
2019-01-25T13:01:01.325Z,93.67
2019-01-25T13:03:30.074Z,89.97
2019-01-25T13:05:58.715Z,102.32
2019-01-25T13:08:27.392Z,67.03
2019-01-25T13:10:56.043Z,103.40
2019-01-25T13:13:31.350Z,96.90
2019-01-25T13:15:55.096Z,87.40
2019-01-25T13:18:23.755Z,88.58
2019-01-25T13:20:52.463Z,90.90
2019-01-25T13:23:21.101Z,59.40
2019-01-25T13:25:50.069Z,82.00
2019-01-25T13:28:18.716Z,82.88
2019-01-25T13:30:47.425Z,82.47
2019-01-25T13:33:16.335Z,92.62
2019-01-25T13:35:44.946Z,87.82
2019-01-25T13:38:13.659Z,84.80
2019-01-25T13:40:42.327Z,79.00
2019-01-25T13:43:10.946Z,89.67
2019-01-25T13:45:39.602Z,78.28
2019-01-25T13:48:08.267Z,84.60
2019-01-25T13:50:36.976Z,79.47
2019-01-25T13:53:05.743Z,82.85
2019-01-25T13:55:34.583Z,65.12
2019-01-25T13:58:03.331Z,76.45
2019-01-25T14:00:33.636Z,79.30
2019-01-25T14:03:02.326Z,77.60
2019-01-25T14:05:31.156Z,93.82
2019-01-25T14:07:59.808Z,81.17
2019-01-25T14:10:30.296Z,65.70
2019-01-25T14:12:59.063Z,78.83
2019-01-25T14:15:27.897Z,88.70
2019-01-25T14:17:56.516Z,73.10
2019-01-25T14:20:26.974Z,74.25
2019-01-25T14:22:55.687Z,76.15
2019-01-25T14:25:24.457Z,86.35
2019-01-25T14:27:53.133Z,80.70
2019-01-25T14:30:24.830Z,83.40
2019-01-25T14:32:53.525Z,81.45
2019-01-25T14:35:22.195Z,86.47
2019-01-25T14:37:52.426Z,81.97
2019-01-25T14:40:21.344Z,77.30
2019-01-25T14:42:49.971Z,68.52
2019-01-25T14:45:18.816Z,86.95
2019-01-25T14:47:47.579Z,89.77
2019-01-25T14:50:18.230Z,93.20
2019-01-25T14:52:46.943Z,89.42
2019-01-25T14:55:15.782Z,84.10
2019-01-25T14:57:44.491Z,82.72
2019-01-25T15:00:13.724Z,81.50
2019-01-25T15:02:42.341Z,80.90
2019-01-25T15:05:14.810Z,81.45
2019-01-25T15:07:43.623Z,85.95
2019-01-25T15:10:17.826Z,87.10
2019-01-25T15:12:47.066Z,85.77
2019-01-25T15:15:15.893Z,86.00
2019-01-25T15:17:44.745Z,87.12
2019-01-25T15:20:21.217Z,85.32
2019-01-25T15:22:49.916Z,80.75
2019-01-25T15:25:18.719Z,91.75
2019-01-25T15:27:47.425Z,79.07
2019-01-25T15:30:18.650Z,74.07
2019-01-25T15:32:47.366Z,89.17
2019-01-25T15:35:17.312Z,87.97
2019-01-25T15:37:45.963Z,90.22
2019-01-25T15:40:15.480Z,86.15
2019-01-25T15:42:44.209Z,79.53
2019-01-25T15:45:14.287Z,84.07
2019-01-25T15:47:42.960Z,99.42
2019-01-25T15:50:14.888Z,119.40
2019-01-25T15:52:43.514Z,98.78
2019-01-25T15:55:12.564Z,93.92
2019-01-25T15:57:41.295Z,100.92
2019-01-25T16:00:13.195Z,111.70
2019-01-25T16:02:41.998Z,98.82
2019-01-25T16:05:12.581Z,108.85
2019-01-25T16:07:41.280Z,113.83
2019-01-25T16:10:12.086Z,90.45
2019-01-25T16:12:40.774Z,89.92
2019-01-25T16:15:12.082Z,80.15
2019-01-25T16:17:40.722Z,84.60
2019-01-25T16:20:11.135Z,84.65
2019-01-25T16:22:39.854Z,91.97
2019-01-25T16:25:11.328Z,85.75
2019-01-25T16:27:39.966Z,83.75
2019-01-25T16:30:11.928Z,93.60
2019-01-25T16:32:40.556Z,84.32
2019-01-25T16:35:09.720Z,92.10
2019-01-25T16:37:38.355Z,85.32
2019-01-25T16:40:09.915Z,87.82
2019-01-25T16:42:38.630Z,89.55
2019-01-25T16:45:10.983Z,87.00
2019-01-25T16:47:39.719Z,92.45
2019-01-25T16:50:08.909Z,93.00
2019-01-25T16:52:37.549Z,90.70
2019-01-25T16:55:07.615Z,99.97
2019-01-25T16:57:36.270Z,84.55
2019-01-25T17:00:09.769Z,85.85
2019-01-25T17:02:38.386Z,96.47
2019-01-25T17:05:07.550Z,97.08
2019-01-25T17:07:36.180Z,81.82
2019-01-25T17:10:05.903Z,93.50
2019-01-25T17:12:34.539Z,65.20
2019-01-25T17:15:03.345Z,99.65
2019-01-25T17:17:32.324Z,104.17
2019-01-25T17:20:00.965Z,96.78
2019-01-25T17:22:29.583Z,93.65
2019-01-25T17:24:58.205Z,102.22
2019-01-25T17:27:27.957Z,99.60
2019-01-25T17:29:56.628Z,95.15
2019-01-25T17:32:25.264Z,95.17
2019-01-25T17:34:53.949Z,98.67
2019-01-25T17:37:22.683Z,113.03
2019-01-25T17:39:51.569Z,118.28
2019-01-25T17:42:20.308Z,114.92
2019-01-25T17:44:48.971Z,104.58
2019-01-25T17:47:17.703Z,103.22
2019-01-25T17:49:46.339Z,110.37
2019-01-25T17:52:14.997Z,108.85
2019-01-25T17:54:43.613Z,101.70
2019-01-25T17:57:12.354Z,98.95
2019-01-25T17:59:41.005Z,107.27
2019-01-25T18:02:09.863Z,101.90
2019-01-25T18:04:38.587Z,110.72
2019-01-25T18:07:07.315Z,102.60
2019-01-25T18:09:36.039Z,103.25
2019-01-25T18:12:04.788Z,110.15
2019-01-25T18:14:33.433Z,119.90
2019-01-25T18:17:02.095Z,111.47
2019-01-25T18:19:30.737Z,116.67
2019-01-25T18:21:59.390Z,130.82
2019-01-25T18:24:28.033Z,116.82
2019-01-25T18:26:56.722Z,130.30
2019-01-25T18:29:31.686Z,117.10
2019-01-25T18:32:00.442Z,122.75
2019-01-25T18:34:29.076Z,117.60
2019-01-25T18:36:57.735Z,126.33
2019-01-25T18:39:26.454Z,138.80
2019-01-25T18:41:55.218Z,132.65
2019-01-25T18:44:23.877Z,122.90
2019-01-25T18:46:52.697Z,127.50
2019-01-25T18:49:22.143Z,141.12
2019-01-25T18:51:51.191Z,119.80
2019-01-25T18:54:19.812Z,127.92
2019-01-25T18:56:49.411Z,141.77
2019-01-25T18:59:18.099Z,138.20
2019-01-25T19:01:47.310Z,133.52
2019-01-25T19:04:15.999Z,132.15
2019-01-25T19:06:44.668Z,113.28
2019-01-25T19:09:13.356Z,125.20
2019-01-25T19:11:42.144Z,118.17
2019-01-25T19:14:10.807Z,142.15
2019-01-25T19:16:39.607Z,131.12
2019-01-25T19:19:08.508Z,135.07
2019-01-25T19:21:37.246Z,125.25
2019-01-25T19:24:05.909Z,130.57
2019-01-25T19:26:34.599Z,126.45
2019-01-25T19:29:03.289Z,114.55
2019-01-25T19:31:31.965Z,122.42
2019-01-25T19:34:00.633Z,123.07
2019-01-25T19:36:29.395Z,113.05
2019-01-25T19:38:58.075Z,122.80
2019-01-25T19:41:26.712Z,138.72
2019-01-25T19:43:55.687Z,125.05
2019-01-25T19:46:24.460Z,112.68
2019-01-25T19:48:53.179Z,122.60
2019-01-25T19:51:21.862Z,118.28
2019-01-25T19:53:50.647Z,113.25
2019-01-25T19:56:19.392Z,119.22
2019-01-25T19:58:48.153Z,111.08
2019-01-25T20:01:17.113Z,115.05
2019-01-25T20:03:45.835Z,90.85
2019-01-25T20:06:14.610Z,106.50
2019-01-25T20:08:43.363Z,110.10
2019-01-25T20:11:12.003Z,104.83
2019-01-25T20:13:40.672Z,93.45
2019-01-25T20:16:09.356Z,105.03
2019-01-25T20:18:38.042Z,108.57
2019-01-25T20:21:06.640Z,111.92
2019-01-25T20:23:35.394Z,106.72
2019-01-25T20:26:04.739Z,88.20
2019-01-25T20:28:33.445Z,105.50
2019-01-25T20:31:02.115Z,99.55
2019-01-25T20:33:31.121Z,116.05
2019-01-25T20:35:59.801Z,104.83
2019-01-25T20:38:28.498Z,111.92
2019-01-25T20:40:57.339Z,104.70
2019-01-25T20:43:26.003Z,104.45
2019-01-25T20:45:54.667Z,101.80
2019-01-25T20:48:23.367Z,117.50
2019-01-25T20:50:52.173Z,113.80
2019-01-25T20:53:20.850Z,111.47
2019-01-25T20:55:49.471Z,120.72
2019-01-25T20:58:18.122Z,110.68
2019-01-25T21:00:46.861Z,101.20
2019-01-25T21:03:16.512Z,114.60
2019-01-25T21:05:45.210Z,132.90
2019-01-25T21:08:13.943Z,118.00
2019-01-25T21:10:42.784Z,113.85
2019-01-25T21:13:11.632Z,128.50
2019-01-25T21:15:40.272Z,144.45
2019-01-25T21:18:09.094Z,122.90
2019-01-25T21:20:40.151Z,105.92
2019-01-25T21:23:08.972Z,135.10
2019-01-25T21:25:37.955Z,108.50
2019-01-25T21:28:06.977Z,115.72
2019-01-25T21:30:35.758Z,109.95
2019-01-25T21:33:04.742Z,117.97
2019-01-25T21:35:33.487Z,126.92
2019-01-25T21:38:02.159Z,114.45
2019-01-25T21:40:31.794Z,117.70
2019-01-25T21:43:00.540Z,102.20
2019-01-25T21:45:31.598Z,128.05
2019-01-25T21:48:00.905Z,93.90
2019-01-25T21:50:32.057Z,109.50
2019-01-25T21:53:00.844Z,103.83
2019-01-25T21:55:29.545Z,95.35
2019-01-25T21:57:58.238Z,97.15
2019-01-25T22:00:28.891Z,105.47
2019-01-25T22:02:57.632Z,84.80
2019-01-25T22:05:26.250Z,65.57
2019-01-25T22:07:54.959Z,86.97
2019-01-25T22:10:29.136Z,81.75
2019-01-25T22:12:57.856Z,97.12
2019-01-25T22:15:26.579Z,93.70
2019-01-25T22:17:55.175Z,80.32
2019-01-25T22:20:25.783Z,78.35
2019-01-25T22:22:54.501Z,82.62
2019-01-25T22:25:23.506Z,94.67
2019-01-25T22:27:53.424Z,76.47
2019-01-25T22:30:23.383Z,69.67
2019-01-25T22:32:52.118Z,91.35
2019-01-25T22:35:21.178Z,77.67
2019-01-25T22:37:50.072Z,66.07
2019-01-25T22:40:21.059Z,70.57
2019-01-25T22:42:49.756Z,64.12
2019-01-25T22:45:20.294Z,63.38
2019-01-25T22:47:49.085Z,59.55
2019-01-25T22:50:20.023Z,65.87
2019-01-25T22:52:48.869Z,64.07
2019-01-25T22:55:17.965Z,54.98
2019-01-25T22:57:46.589Z,64.05
2019-01-25T23:00:47.425Z,71.17
2019-01-25T23:03:17.534Z,63.30
2019-01-25T23:06:29.866Z,57.78
2019-01-25T23:09:00.535Z,54.67
2019-01-25T23:11:29.170Z,54.65
2019-01-25T23:13:57.825Z,56.58
2019-01-25T23:16:26.461Z,57.90
2019-01-25T23:18:55.100Z,56.02
2019-01-25T23:21:23.971Z,59.67
2019-01-25T23:23:52.615Z,63.45
2019-01-25T23:26:21.336Z,57.90
2019-01-25T23:28:50.044Z,52.15
2019-01-25T23:31:18.669Z,46.42
2019-01-25T23:33:47.395Z,77.75
2019-01-25T23:36:16.002Z,59.38
2019-01-25T23:38:44.687Z,55.70
2019-01-25T23:41:13.325Z,55.88
2019-01-25T23:43:41.974Z,49.70
2019-01-25T23:46:13.883Z,54.00
2019-01-25T23:48:41.408Z,59.33
2019-01-25T23:51:10.295Z,43.87
2019-01-25T23:53:39.138Z,50.55
2019-01-25T23:56:07.786Z,47.62
2019-01-25T23:58:36.388Z,38.48
